createdAt,value
2019-04-25T00:00:12.961Z,99420
2019-04-25T00:05:12.916Z,99433
2019-04-25T00:10:13.731Z,99434
2019-04-25T00:15:12.960Z,99462
2019-04-25T00:20:12.957Z,99460
2019-04-25T00:25:17.218Z,99459
2019-04-25T00:30:12.965Z,99467
2019-04-25T00:35:12.972Z,99486
2019-04-25T00:40:13.514Z,99487
2019-04-25T00:45:13.959Z,99505
2019-04-25T00:50:12.926Z,99506
2019-04-25T00:55:13.191Z,99508
2019-04-25T01:00:12.995Z,99518
2019-04-25T01:05:12.981Z,99517
2019-04-25T01:10:12.967Z,99509
2019-04-25T01:15:12.967Z,99511
2019-04-25T01:20:13.951Z,99487
2019-04-25T01:25:13.769Z,99503
2019-04-25T01:30:14.068Z,99525
2019-04-25T01:35:13.947Z,99533
2019-04-25T01:40:14.054Z,99549
2019-04-25T01:45:14.040Z,99542
2019-04-25T01:50:13.713Z,99534
2019-04-25T01:55:13.689Z,99537
2019-04-25T02:00:13.943Z,99529
2019-04-25T02:05:13.870Z,99546
2019-04-25T02:10:13.429Z,99546
2019-04-25T02:15:13.714Z,99561
2019-04-25T02:20:13.945Z,99570
2019-04-25T02:25:13.299Z,99570
2019-04-25T02:30:15.123Z,99575
2019-04-25T02:35:14.691Z,99585
2019-04-25T02:40:14.109Z,99597
2019-04-25T02:45:16.072Z,99611
2019-04-25T02:50:15.043Z,99595
2019-04-25T02:55:27.802Z,99613
2019-04-25T03:00:14.909Z,99609
2019-04-25T03:05:14.203Z,99587
2019-04-25T03:10:14.791Z,99595
2019-04-25T03:15:14.423Z,99591
2019-04-25T03:20:14.747Z,99615
2019-04-25T03:25:16.526Z,99613
2019-04-25T03:30:14.601Z,99612
2019-04-25T03:35:13.538Z,99612
2019-04-25T03:40:13.923Z,99626
2019-04-25T03:45:13.952Z,99638
2019-04-25T03:50:13.938Z,99646
2019-04-25T03:55:14.371Z,99646
2019-04-25T04:00:14.347Z,99649
2019-04-25T04:05:13.853Z,99657
2019-04-25T04:10:14.431Z,99669
2019-04-25T04:15:14.756Z,99669
2019-04-25T04:20:14.545Z,99672
2019-04-25T04:25:13.827Z,99678
2019-04-25T04:30:14.400Z,99679
2019-04-25T04:35:14.389Z,99682
2019-04-25T04:40:15.684Z,99694
2019-04-25T04:45:14.236Z,99702
2019-04-25T04:50:14.437Z,99700
2019-04-25T04:55:15.581Z,99709
2019-04-25T05:00:14.520Z,99704
2019-04-25T05:05:14.432Z,99715
2019-04-25T05:10:13.473Z,99712
2019-04-25T05:15:15.238Z,99711
2019-04-25T05:20:15.104Z,99717
2019-04-25T05:25:15.159Z,99709
2019-04-25T05:30:14.568Z,99710
2019-04-25T05:35:14.138Z,99710
2019-04-25T05:40:13.915Z,99714
2019-04-25T05:45:15.077Z,99735
2019-04-25T05:50:14.023Z,99740
2019-04-25T05:55:14.238Z,99755
2019-04-25T06:00:13.396Z,99755
2019-04-25T06:05:13.228Z,99764
2019-04-25T06:10:14.368Z,99773
2019-04-25T06:15:13.308Z,99771
2019-04-25T06:20:13.409Z,99773
2019-04-25T06:25:16.204Z,99785
2019-04-25T06:30:13.953Z,99794
2019-04-25T06:35:14.286Z,99796
2019-04-25T06:40:13.667Z,99810
2019-04-25T06:45:18.027Z,99820
2019-04-25T06:50:13.617Z,99821
2019-04-25T06:55:14.068Z,99831
2019-04-25T07:00:14.040Z,99821
2019-04-25T07:05:25.769Z,99832
2019-04-25T07:10:13.312Z,99839
2019-04-25T07:15:13.734Z,99833
2019-04-25T07:20:13.785Z,99834
2019-04-25T07:25:13.199Z,99836
2019-04-25T07:30:13.497Z,99844
2019-04-25T07:35:13.481Z,99852
2019-04-25T07:40:13.891Z,99846
2019-04-25T07:45:14.056Z,99853
2019-04-25T07:50:13.900Z,99855
2019-04-25T07:55:13.731Z,99869
2019-04-25T08:00:13.229Z,99867
2019-04-25T08:05:14.351Z,99879
2019-04-25T08:10:13.989Z,99871
2019-04-25T08:15:13.854Z,99862
2019-04-25T08:20:13.522Z,99870
2019-04-25T08:25:13.769Z,99877
2019-04-25T08:30:13.983Z,99869
2019-04-25T08:35:13.874Z,99872
2019-04-25T08:40:13.668Z,99860
2019-04-25T08:45:13.386Z,99860
2019-04-25T08:50:26.018Z,99854
2019-04-25T08:55:14.213Z,99858
2019-04-25T09:00:14.307Z,99853
2019-04-25T09:05:14.425Z,99848
2019-04-25T09:10:13.441Z,99860
2019-04-25T09:15:14.060Z,99859
2019-04-25T09:20:13.874Z,99861
2019-04-25T09:25:13.740Z,99845
2019-04-25T09:30:14.316Z,99844
2019-04-25T09:35:13.670Z,99844
2019-04-25T09:40:13.906Z,99844
2019-04-25T09:45:13.314Z,99844
2019-04-25T09:50:13.890Z,99844
2019-04-25T09:55:13.299Z,99844
2019-04-25T10:00:13.282Z,99844
2019-04-25T10:05:13.945Z,99825
2019-04-25T10:10:13.506Z,99832
2019-04-25T10:15:14.192Z,99821
2019-04-25T10:20:14.567Z,99821
2019-04-25T10:25:13.332Z,99813
2019-04-25T10:30:17.383Z,99801
2019-04-25T10:35:14.579Z,99794
2019-04-25T10:40:13.424Z,99810
2019-04-25T10:45:21.144Z,99787
2019-04-25T10:50:13.468Z,99788
2019-04-25T10:55:14.205Z,99786
2019-04-25T11:00:13.722Z,99784
2019-04-25T11:05:13.698Z,99781
2019-04-25T11:10:14.018Z,99776
2019-04-25T11:15:14.298Z,99772
2019-04-25T11:20:14.381Z,99778
2019-04-25T11:25:13.352Z,99767
2019-04-25T11:30:13.887Z,99764
2019-04-25T11:35:13.918Z,99768
2019-04-25T11:40:14.409Z,99757
2019-04-25T11:45:14.335Z,99749
2019-04-25T11:50:13.995Z,99751
2019-04-25T11:55:14.287Z,99741
2019-04-25T12:00:21.781Z,99741
2019-04-25T12:05:14.862Z,99743
2019-04-25T12:10:13.097Z,99723
2019-04-25T12:15:13.194Z,99730
2019-04-25T12:20:14.294Z,99722
2019-04-25T12:25:13.418Z,99713
2019-04-25T12:30:13.948Z,99711
2019-04-25T12:35:14.203Z,99707
2019-04-25T12:40:14.034Z,99695
2019-04-25T12:45:14.127Z,99695
2019-04-25T12:50:14.342Z,99690
2019-04-25T12:55:13.908Z,99684
2019-04-25T13:00:14.021Z,99678
2019-04-25T13:05:14.158Z,99671
2019-04-25T13:10:15.246Z,99658
2019-04-25T13:15:13.145Z,99654
2019-04-25T13:20:13.545Z,99656
2019-04-25T13:25:14.261Z,99647
2019-04-25T13:30:13.995Z,99649
2019-04-25T13:35:13.565Z,99647
2019-04-25T13:40:13.112Z,99631
2019-04-25T13:45:14.267Z,99640
2019-04-25T13:50:14.551Z,99621
2019-04-25T13:55:18.118Z,99631
2019-04-25T14:00:14.192Z,99613
2019-04-25T14:05:14.468Z,99597
2019-04-25T14:10:14.194Z,99595
2019-04-25T14:15:18.155Z,99588
2019-04-25T14:20:14.221Z,99579
2019-04-25T14:25:14.782Z,99592
2019-04-25T14:30:13.507Z,99593
2019-04-25T14:35:14.343Z,99569
2019-04-25T14:40:13.951Z,99565
2019-04-25T14:45:13.129Z,99548
2019-04-25T14:50:13.178Z,99553
2019-04-25T14:55:13.144Z,99545
2019-04-25T15:00:13.121Z,99554
2019-04-25T15:05:13.166Z,99546
2019-04-25T15:10:13.136Z,99544
2019-04-25T15:15:13.145Z,99533
2019-04-25T15:20:13.157Z,99549
2019-04-25T15:25:13.144Z,99542
2019-04-25T15:30:13.121Z,99548
2019-04-25T15:35:13.159Z,99533
2019-04-25T15:40:13.154Z,99525
2019-04-25T15:45:13.128Z,99512
2019-04-25T15:50:13.154Z,99515
2019-04-25T15:55:13.149Z,99516
2019-04-25T16:00:13.141Z,99525
2019-04-25T16:05:13.157Z,99522
2019-04-25T16:10:13.139Z,99517
2019-04-25T16:15:13.150Z,99514
2019-04-25T16:20:13.162Z,99514
2019-04-25T16:25:13.133Z,99520
2019-04-25T16:30:13.172Z,99520
2019-04-25T16:35:13.153Z,99502
2019-04-25T16:40:13.125Z,99507
2019-04-25T16:45:13.150Z,99503
2019-04-25T16:50:13.158Z,99500
2019-04-25T16:55:13.165Z,99498
2019-04-25T17:00:13.152Z,99497
2019-04-25T17:05:13.187Z,99492
2019-04-25T17:10:13.150Z,99492
2019-04-25T17:15:13.157Z,99490
2019-04-25T17:20:18.156Z,99496
2019-04-25T17:25:13.161Z,99500
2019-04-25T17:30:13.165Z,99484
2019-04-25T17:35:13.163Z,99491
2019-04-25T17:40:13.168Z,99491
2019-04-25T17:45:13.178Z,99489
2019-04-25T17:50:13.188Z,99480
2019-04-25T17:55:13.182Z,99481
2019-04-25T18:00:13.160Z,99475
2019-04-25T18:05:13.171Z,99474
2019-04-25T18:10:13.178Z,99460
2019-04-25T18:15:13.233Z,99469
2019-04-25T18:20:13.218Z,99466
2019-04-25T18:25:13.179Z,99472
2019-04-25T18:30:13.154Z,99465
2019-04-25T18:35:13.184Z,99471
2019-04-25T18:40:13.199Z,99463
2019-04-25T18:45:13.182Z,99466
2019-04-25T18:50:13.271Z,99468
2019-04-25T18:55:13.175Z,99478
2019-04-25T19:00:13.183Z,99472
2019-04-25T19:05:13.192Z,99470
2019-04-25T19:10:13.160Z,99475
2019-04-25T19:15:13.171Z,99464
2019-04-25T19:20:13.220Z,99462
2019-04-25T19:25:13.184Z,99461
2019-04-25T19:30:13.179Z,99456
2019-04-25T19:35:13.200Z,99454
2019-04-25T19:40:13.194Z,99459
2019-04-25T19:45:13.217Z,99452
2019-04-25T19:50:13.164Z,99449
2019-04-25T19:55:13.181Z,99450
2019-04-25T20:00:13.188Z,99444
2019-04-25T20:05:13.183Z,99451
2019-04-25T20:10:13.187Z,99450
2019-04-25T20:15:13.230Z,99444
2019-04-25T20:20:13.196Z,99443
2019-04-25T20:25:13.204Z,99435
2019-04-25T20:30:13.196Z,99434
2019-04-25T20:35:13.181Z,99425
2019-04-25T20:40:13.228Z,99414
2019-04-25T20:45:13.182Z,99416
2019-04-25T20:50:13.200Z,99413
2019-04-25T20:55:13.218Z,99409
2019-04-25T21:00:13.198Z,99406
2019-04-25T21:05:13.224Z,99404
2019-04-25T21:10:13.268Z,99410
2019-04-25T21:15:13.237Z,99402
2019-04-25T21:20:13.206Z,99415
2019-04-25T21:25:13.235Z,99395
2019-04-25T21:30:13.206Z,99401
2019-04-25T21:35:13.224Z,99400
2019-04-25T21:40:13.396Z,99401
2019-04-25T21:45:13.227Z,99398
2019-04-25T21:50:13.210Z,99390
2019-04-25T21:55:13.248Z,99387
2019-04-25T22:00:13.212Z,99388
2019-04-25T22:05:13.226Z,99389
2019-04-25T22:10:13.245Z,99387
2019-04-25T22:15:13.229Z,99373
2019-04-25T22:20:13.213Z,99371
2019-04-25T22:25:13.244Z,99364
2019-04-25T22:30:13.217Z,99369
2019-04-25T22:35:13.223Z,99360
2019-04-25T22:40:13.261Z,99356
2019-04-25T22:45:13.242Z,99347
2019-04-25T22:50:13.261Z,99346
2019-04-25T22:55:13.228Z,99343
2019-04-25T23:00:13.210Z,99334
2019-04-25T23:05:15.841Z,99335
2019-04-25T23:10:13.245Z,99333
2019-04-25T23:15:13.265Z,99322
2019-04-25T23:20:13.834Z,99331
2019-04-25T23:25:14.156Z,99317
2019-04-25T23:30:13.253Z,99318
2019-04-25T23:35:23.342Z,99307
2019-04-25T23:40:13.698Z,99300
2019-04-25T23:45:14.451Z,99296
2019-04-25T23:50:13.243Z,99298
2019-04-25T23:55:13.246Z,99295
